sensor_id;sensor_type;location;lat;lon;timestamp;temperature;humidity
12446;DHT22;6287;50.984;7.022;2023-02-01T00:00:29;6.60;99.90
12446;DHT22;6287;50.984;7.022;2023-02-01T00:02:54;6.60;99.90
12446;DHT22;6287;50.984;7.022;2023-02-01T00:05:20;6.60;99.90
12446;DHT22;6287;50.984;7.022;2023-02-01T00:07:47;6.60;99.90
12446;DHT22;6287;50.984;7.022;2023-02-01T00:10:16;6.60;99.90
12446;DHT22;6287;50.984;7.022;2023-02-01T00:12:44;6.60;99.90
12446;DHT22;6287;50.984;7.022;2023-02-01T00:15:14;6.60;99.90
12446;DHT22;6287;50.984;7.022;2023-02-01T00:17:40;6.60;99.90
12446;DHT22;6287;50.984;7.022;2023-02-01T00:20:06;6.60;99.90
12446;DHT22;6287;50.984;7.022;2023-02-01T00:24:59;6.50;99.90
12446;DHT22;6287;50.984;7.022;2023-02-01T00:27:25;6.60;99.90
12446;DHT22;6287;50.984;7.022;2023-02-01T00:29:53;6.60;99.90
12446;DHT22;6287;50.984;7.022;2023-02-01T00:34:47;6.50;99.90
12446;DHT22;6287;50.984;7.022;2023-02-01T00:37:15;6.60;99.90
12446;DHT22;6287;50.984;7.022;2023-02-01T00:39:45;6.60;99.90
12446;DHT22;6287;50.984;7.022;2023-02-01T00:42:13;6.60;99.90
12446;DHT22;6287;50.984;7.022;2023-02-01T00:44:38;6.60;99.90
12446;DHT22;6287;50.984;7.022;2023-02-01T00:47:06;6.50;99.90
12446;DHT22;6287;50.984;7.022;2023-02-01T00:49:32;6.50;99.90
12446;DHT22;6287;50.984;7.022;2023-02-01T00:51:57;6.50;99.90
12446;DHT22;6287;50.984;7.022;2023-02-01T00:54:23;6.40;99.90
12446;DHT22;6287;50.984;7.022;2023-02-01T00:56:49;6.40;99.90
12446;DHT22;6287;50.984;7.022;2023-02-01T00:59:14;6.40;99.90
12446;DHT22;6287;50.984;7.022;2023-02-01T01:01:40;6.40;99.90
12446;DHT22;6287;50.984;7.022;2023-02-01T01:04:10;6.40;99.90
12446;DHT22;6287;50.984;7.022;2023-02-01T01:06:38;6.40;99.90
12446;DHT22;6287;50.984;7.022;2023-02-01T01:09:07;6.40;99.90
12446;DHT22;6287;50.984;7.022;2023-02-01T01:11:38;6.40;99.90
12446;DHT22;6287;50.984;7.022;2023-02-01T01:14:06;6.30;99.90
12446;DHT22;6287;50.984;7.022;2023-02-01T01:16:33;6.30;99.90
12446;DHT22;6287;50.984;7.022;2023-02-01T01:18:59;6.30;99.90
12446;DHT22;6287;50.984;7.022;2023-02-01T01:21:25;6.30;99.90
12446;DHT22;6287;50.984;7.022;2023-02-01T01:23:51;6.80;99.90
12446;DHT22;6287;50.984;7.022;2023-02-01T01:26:21;6.30;99.90
12446;DHT22;6287;50.984;7.022;2023-02-01T01:28:48;6.30;99.90
12446;DHT22;6287;50.984;7.022;2023-02-01T01:31:15;6.20;99.90
12446;DHT22;6287;50.984;7.022;2023-02-01T01:33:46;6.20;99.90
12446;DHT22;6287;50.984;7.022;2023-02-01T01:36:15;6.20;99.90
12446;DHT22;6287;50.984;7.022;2023-02-01T01:38:41;6.20;99.90
12446;DHT22;6287;50.984;7.022;2023-02-01T01:41:15;6.20;99.90
12446;DHT22;6287;50.984;7.022;2023-02-01T01:44:02;6.20;99.90
12446;DHT22;6287;50.984;7.022;2023-02-01T01:46:38;6.20;99.90
12446;DHT22;6287;50.984;7.022;2023-02-01T01:49:13;6.10;99.90
12446;DHT22;6287;50.984;7.022;2023-02-01T01:52:01;6.10;99.90
12446;DHT22;6287;50.984;7.022;2023-02-01T01:54:37;6.20;99.90
12446;DHT22;6287;50.984;7.022;2023-02-01T01:57:14;6.00;99.90
12446;DHT22;6287;50.984;7.022;2023-02-01T01:59:48;6.00;99.90
12446;DHT22;6287;50.984;7.022;2023-02-01T02:02:18;6.00;99.90
12446;DHT22;6287;50.984;7.022;2023-02-01T02:04:47;6.00;99.90
12446;DHT22;6287;50.984;7.022;2023-02-01T02:07:18;6.00;99.90
12446;DHT22;6287;50.984;7.022;2023-02-01T02:09:47;5.80;99.90
12446;DHT22;6287;50.984;7.022;2023-02-01T02:12:18;5.90;99.90
12446;DHT22;6287;50.984;7.022;2023-02-01T02:14:47;5.90;99.90
12446;DHT22;6287;50.984;7.022;2023-02-01T02:17:23;5.90;99.90
12446;DHT22;6287;50.984;7.022;2023-02-01T02:20:13;5.90;99.90
12446;DHT22;6287;50.984;7.022;2023-02-01T02:25:46;6.00;99.90
12446;DHT22;6287;50.984;7.022;2023-02-01T02:42:07;6.00;99.90
12446;DHT22;6287;50.984;7.022;2023-02-01T02:53:32;6.00;99.90
12446;DHT22;6287;50.984;7.022;2023-02-01T02:56:18;6.00;99.90
12446;DHT22;6287;50.984;7.022;2023-02-01T02:59:08;6.00;99.90
12446;DHT22;6287;50.984;7.022;2023-02-01T03:01:57;6.10;99.90
12446;DHT22;6287;50.984;7.022;2023-02-01T03:09:59;6.00;99.90
12446;DHT22;6287;50.984;7.022;2023-02-01T03:12:31;6.00;99.90
12446;DHT22;6287;50.984;7.022;2023-02-01T03:15:18;6.00;99.90
12446;DHT22;6287;50.984;7.022;2023-02-01T03:17:49;6.00;99.90
12446;DHT22;6287;50.984;7.022;2023-02-01T03:20:17;6.10;99.90
12446;DHT22;6287;50.984;7.022;2023-02-01T03:22:49;6.10;99.90
12446;DHT22;6287;50.984;7.022;2023-02-01T03:25:26;6.10;99.90
12446;DHT22;6287;50.984;7.022;2023-02-01T03:28:07;6.10;99.90
12446;DHT22;6287;50.984;7.022;2023-02-01T03:30:42;6.10;99.90
12446;DHT22;6287;50.984;7.022;2023-02-01T03:33:15;6.10;99.90
12446;DHT22;6287;50.984;7.022;2023-02-01T03:39:13;6.20;99.90
12446;DHT22;6287;50.984;7.022;2023-02-01T03:41:41;6.20;99.90
12446;DHT22;6287;50.984;7.022;2023-02-01T03:49:46;6.20;99.90
12446;DHT22;6287;50.984;7.022;2023-02-01T03:52:26;6.30;99.90
12446;DHT22;6287;50.984;7.022;2023-02-01T03:54:54;6.20;99.90
12446;DHT22;6287;50.984;7.022;2023-02-01T03:57:30;6.20;99.90
12446;DHT22;6287;50.984;7.022;2023-02-01T04:00:14;6.10;99.90
12446;DHT22;6287;50.984;7.022;2023-02-01T04:02:42;6.20;99.90
12446;DHT22;6287;50.984;7.022;2023-02-01T04:05:11;6.20;99.90
12446;DHT22;6287;50.984;7.022;2023-02-01T04:07:37;6.20;99.90
12446;DHT22;6287;50.984;7.022;2023-02-01T04:10:05;6.20;99.90
12446;DHT22;6287;50.984;7.022;2023-02-01T04:12:33;6.20;99.90
12446;DHT22;6287;50.984;7.022;2023-02-01T04:14:59;6.30;99.90
12446;DHT22;6287;50.984;7.022;2023-02-01T04:17:27;6.20;99.90
12446;DHT22;6287;50.984;7.022;2023-02-01T04:19:53;6.20;99.90
12446;DHT22;6287;50.984;7.022;2023-02-01T04:22:21;6.20;99.90
12446;DHT22;6287;50.984;7.022;2023-02-01T04:24:49;6.20;99.90
12446;DHT22;6287;50.984;7.022;2023-02-01T04:27:17;6.20;99.90
12446;DHT22;6287;50.984;7.022;2023-02-01T04:29:45;6.20;99.90
12446;DHT22;6287;50.984;7.022;2023-02-01T04:32:10;6.20;99.90
12446;DHT22;6287;50.984;7.022;2023-02-01T04:34:36;6.20;99.90
12446;DHT22;6287;50.984;7.022;2023-02-01T04:37:06;6.10;99.90
12446;DHT22;6287;50.984;7.022;2023-02-01T04:39:32;6.10;99.90
12446;DHT22;6287;50.984;7.022;2023-02-01T04:41:58;6.20;99.90
12446;DHT22;6287;50.984;7.022;2023-02-01T04:44:24;6.20;99.90
12446;DHT22;6287;50.984;7.022;2023-02-01T04:46:49;6.20;99.90
12446;DHT22;6287;50.984;7.022;2023-02-01T04:49:20;6.20;99.90
12446;DHT22;6287;50.984;7.022;2023-02-01T04:51:47;6.10;99.90
12446;DHT22;6287;50.984;7.022;2023-02-01T04:54:15;6.00;99.90
12446;DHT22;6287;50.984;7.022;2023-02-01T04:56:41;6.00;99.90
12446;DHT22;6287;50.984;7.022;2023-02-01T04:59:11;5.90;99.90
12446;DHT22;6287;50.984;7.022;2023-02-01T05:01:39;5.90;99.90
12446;DHT22;6287;50.984;7.022;2023-02-01T05:04:04;5.90;99.90
12446;DHT22;6287;50.984;7.022;2023-02-01T05:06:35;5.90;99.90
12446;DHT22;6287;50.984;7.022;2023-02-01T05:09:03;5.80;99.90
12446;DHT22;6287;50.984;7.022;2023-02-01T05:11:31;5.80;99.90
12446;DHT22;6287;50.984;7.022;2023-02-01T05:14:15;5.80;99.90
12446;DHT22;6287;50.984;7.022;2023-02-01T05:19:06;5.70;99.90
12446;DHT22;6287;50.984;7.022;2023-02-01T05:21:32;5.70;99.90
12446;DHT22;6287;50.984;7.022;2023-02-01T05:23:57;5.70;99.90
12446;DHT22;6287;50.984;7.022;2023-02-01T05:26:36;5.70;99.90
12446;DHT22;6287;50.984;7.022;2023-02-01T05:29:02;5.70;99.90
12446;DHT22;6287;50.984;7.022;2023-02-01T05:31:28;5.60;99.90
12446;DHT22;6287;50.984;7.022;2023-02-01T05:33:53;5.60;99.90
12446;DHT22;6287;50.984;7.022;2023-02-01T05:36:19;5.50;99.90
12446;DHT22;6287;50.984;7.022;2023-02-01T05:38:45;5.60;99.90
12446;DHT22;6287;50.984;7.022;2023-02-01T05:41:10;5.50;99.90
12446;DHT22;6287;50.984;7.022;2023-02-01T05:43:40;5.50;99.90
12446;DHT22;6287;50.984;7.022;2023-02-01T05:46:06;5.50;99.90
12446;DHT22;6287;50.984;7.022;2023-02-01T05:48:38;5.50;99.90
12446;DHT22;6287;50.984;7.022;2023-02-01T05:51:04;5.50;99.90
12446;DHT22;6287;50.984;7.022;2023-02-01T05:53:29;5.50;99.90
12446;DHT22;6287;50.984;7.022;2023-02-01T05:55:57;5.40;99.90
12446;DHT22;6287;50.984;7.022;2023-02-01T05:58:23;5.40;99.90
12446;DHT22;6287;50.984;7.022;2023-02-01T06:00:51;5.40;99.90
12446;DHT22;6287;50.984;7.022;2023-02-01T06:03:19;5.50;99.90
12446;DHT22;6287;50.984;7.022;2023-02-01T06:05:45;5.50;99.90
12446;DHT22;6287;50.984;7.022;2023-02-01T06:08:11;5.50;99.90
12446;DHT22;6287;50.984;7.022;2023-02-01T06:10:40;5.50;99.90
12446;DHT22;6287;50.984;7.022;2023-02-01T06:13:10;5.50;99.90
12446;DHT22;6287;50.984;7.022;2023-02-01T06:15:36;5.50;99.90
12446;DHT22;6287;50.984;7.022;2023-02-01T06:18:05;5.50;99.90
12446;DHT22;6287;50.984;7.022;2023-02-01T06:20:31;5.50;99.90
12446;DHT22;6287;50.984;7.022;2023-02-01T06:22:56;5.50;99.90
12446;DHT22;6287;50.984;7.022;2023-02-01T06:25:24;5.40;99.90
12446;DHT22;6287;50.984;7.022;2023-02-01T06:27:49;5.40;99.90
12446;DHT22;6287;50.984;7.022;2023-02-01T06:30:15;5.40;99.90
12446;DHT22;6287;50.984;7.022;2023-02-01T06:32:41;5.40;99.90
12446;DHT22;6287;50.984;7.022;2023-02-01T06:35:10;5.40;99.90
12446;DHT22;6287;50.984;7.022;2023-02-01T06:37:42;5.30;99.90
12446;DHT22;6287;50.984;7.022;2023-02-01T06:40:08;5.40;99.90
12446;DHT22;6287;50.984;7.022;2023-02-01T06:42:34;5.40;99.90
12446;DHT22;6287;50.984;7.022;2023-02-01T06:45:00;5.40;99.90
12446;DHT22;6287;50.984;7.022;2023-02-01T06:47:28;5.50;99.90
12446;DHT22;6287;50.984;7.022;2023-02-01T06:49:56;5.50;99.90
12446;DHT22;6287;50.984;7.022;2023-02-01T06:52:21;5.60;99.90
12446;DHT22;6287;50.984;7.022;2023-02-01T06:54:49;5.60;99.90
12446;DHT22;6287;50.984;7.022;2023-02-01T06:57:15;5.60;99.90
12446;DHT22;6287;50.984;7.022;2023-02-01T06:59:43;5.70;99.90
12446;DHT22;6287;50.984;7.022;2023-02-01T07:02:13;5.70;99.90
12446;DHT22;6287;50.984;7.022;2023-02-01T07:04:38;5.70;99.90
12446;DHT22;6287;50.984;7.022;2023-02-01T07:07:04;5.70;99.90
12446;DHT22;6287;50.984;7.022;2023-02-01T07:09:30;5.70;99.90
12446;DHT22;6287;50.984;7.022;2023-02-01T07:11:55;5.70;99.90
12446;DHT22;6287;50.984;7.022;2023-02-01T07:14:21;5.70;99.90
12446;DHT22;6287;50.984;7.022;2023-02-01T07:16:46;5.70;99.90
12446;DHT22;6287;50.984;7.022;2023-02-01T07:19:12;5.70;99.90
12446;DHT22;6287;50.984;7.022;2023-02-01T07:21:37;5.70;99.90
12446;DHT22;6287;50.984;7.022;2023-02-01T07:24:08;5.70;99.90
12446;DHT22;6287;50.984;7.022;2023-02-01T07:29:02;5.70;99.90
12446;DHT22;6287;50.984;7.022;2023-02-01T07:31:27;5.80;99.90
12446;DHT22;6287;50.984;7.022;2023-02-01T07:33:54;5.80;99.90
12446;DHT22;6287;50.984;7.022;2023-02-01T07:36:23;5.80;99.90
12446;DHT22;6287;50.984;7.022;2023-02-01T07:38:49;5.80;99.90
12446;DHT22;6287;50.984;7.022;2023-02-01T07:41:17;5.80;99.90
12446;DHT22;6287;50.984;7.022;2023-02-01T07:43:43;5.90;99.90
12446;DHT22;6287;50.984;7.022;2023-02-01T07:46:11;5.90;99.90
12446;DHT22;6287;50.984;7.022;2023-02-01T07:48:37;5.90;99.90
12446;DHT22;6287;50.984;7.022;2023-02-01T07:51:10;5.80;99.90
12446;DHT22;6287;50.984;7.022;2023-02-01T07:53:38;5.90;99.90
12446;DHT22;6287;50.984;7.022;2023-02-01T07:56:13;5.90;99.90
12446;DHT22;6287;50.984;7.022;2023-02-01T07:58:39;5.90;99.90
12446;DHT22;6287;50.984;7.022;2023-02-01T08:01:10;5.90;99.90
12446;DHT22;6287;50.984;7.022;2023-02-01T08:03:51;5.90;99.90
12446;DHT22;6287;50.984;7.022;2023-02-01T08:06:17;6.00;99.90
12446;DHT22;6287;50.984;7.022;2023-02-01T08:08:48;5.90;99.90
12446;DHT22;6287;50.984;7.022;2023-02-01T08:11:15;5.90;99.90
12446;DHT22;6287;50.984;7.022;2023-02-01T08:13:42;5.90;99.90
12446;DHT22;6287;50.984;7.022;2023-02-01T08:16:11;6.00;99.90
12446;DHT22;6287;50.984;7.022;2023-02-01T08:18:38;6.00;99.90
12446;DHT22;6287;50.984;7.022;2023-02-01T08:21:13;5.90;99.90
12446;DHT22;6287;50.984;7.022;2023-02-01T08:23:40;5.90;99.90
12446;DHT22;6287;50.984;7.022;2023-02-01T08:28:35;5.90;99.90
12446;DHT22;6287;50.984;7.022;2023-02-01T08:31:10;6.00;99.90
12446;DHT22;6287;50.984;7.022;2023-02-01T08:33:36;5.90;99.90
12446;DHT22;6287;50.984;7.022;2023-02-01T08:36:04;6.00;99.90
12446;DHT22;6287;50.984;7.022;2023-02-01T08:38:35;6.00;99.90
12446;DHT22;6287;50.984;7.022;2023-02-01T08:41:12;6.00;99.90
12446;DHT22;6287;50.984;7.022;2023-02-01T08:43:39;6.00;99.90
12446;DHT22;6287;50.984;7.022;2023-02-01T08:46:06;6.00;99.90
12446;DHT22;6287;50.984;7.022;2023-02-01T08:48:32;6.00;99.90
12446;DHT22;6287;50.984;7.022;2023-02-01T08:51:04;6.10;99.90
12446;DHT22;6287;50.984;7.022;2023-02-01T08:53:30;6.10;99.90
12446;DHT22;6287;50.984;7.022;2023-02-01T08:55:56;6.10;99.90
12446;DHT22;6287;50.984;7.022;2023-02-01T08:58:22;6.20;99.90
12446;DHT22;6287;50.984;7.022;2023-02-01T09:00:48;6.20;99.90
12446;DHT22;6287;50.984;7.022;2023-02-01T09:03:17;6.30;99.90
12446;DHT22;6287;50.984;7.022;2023-02-01T09:05:45;6.30;99.90
12446;DHT22;6287;50.984;7.022;2023-02-01T09:08:15;6.40;99.90
12446;DHT22;6287;50.984;7.022;2023-02-01T09:10:42;6.40;99.90
12446;DHT22;6287;50.984;7.022;2023-02-01T09:13:08;6.40;99.90
12446;DHT22;6287;50.984;7.022;2023-02-01T09:15:36;6.40;99.90
12446;DHT22;6287;50.984;7.022;2023-02-01T09:18:07;6.50;99.90
12446;DHT22;6287;50.984;7.022;2023-02-01T09:20:32;6.60;99.90
12446;DHT22;6287;50.984;7.022;2023-02-01T09:22:58;6.70;99.90
12446;DHT22;6287;50.984;7.022;2023-02-01T09:25:23;6.70;99.90
12446;DHT22;6287;50.984;7.022;2023-02-01T09:27:49;6.80;99.90
12446;DHT22;6287;50.984;7.022;2023-02-01T09:30:15;6.70;99.90
12446;DHT22;6287;50.984;7.022;2023-02-01T09:32:40;6.70;99.90
12446;DHT22;6287;50.984;7.022;2023-02-01T09:35:06;6.70;99.90
12446;DHT22;6287;50.984;7.022;2023-02-01T09:37:34;6.70;99.90
12446;DHT22;6287;50.984;7.022;2023-02-01T09:40:03;6.70;99.90
12446;DHT22;6287;50.984;7.022;2023-02-01T09:47:59;6.70;99.90
12446;DHT22;6287;50.984;7.022;2023-02-01T09:50:38;6.70;99.90
12446;DHT22;6287;50.984;7.022;2023-02-01T09:53:28;6.80;99.90
12446;DHT22;6287;50.984;7.022;2023-02-01T09:56:07;6.80;99.90
12446;DHT22;6287;50.984;7.022;2023-02-01T09:58:42;6.80;99.90
12446;DHT22;6287;50.984;7.022;2023-02-01T10:01:22;6.90;99.90
12446;DHT22;6287;50.984;7.022;2023-02-01T10:03:49;6.90;99.90
12446;DHT22;6287;50.984;7.022;2023-02-01T10:06:25;6.90;99.90
12446;DHT22;6287;50.984;7.022;2023-02-01T10:22:42;7.10;99.90
12446;DHT22;6287;50.984;7.022;2023-02-01T10:27:41;7.40;99.90
12446;DHT22;6287;50.984;7.022;2023-02-01T10:30:19;7.50;99.90
12446;DHT22;6287;50.984;7.022;2023-02-01T10:32:47;7.70;99.90
12446;DHT22;6287;50.984;7.022;2023-02-01T10:35:21;7.80;99.90
12446;DHT22;6287;50.984;7.022;2023-02-01T10:37:49;8.00;99.90
12446;DHT22;6287;50.984;7.022;2023-02-01T10:42:45;8.50;99.90
12446;DHT22;6287;50.984;7.022;2023-02-01T10:45:17;8.70;99.90
12446;DHT22;6287;50.984;7.022;2023-02-01T10:47:44;8.80;99.90
12446;DHT22;6287;50.984;7.022;2023-02-01T10:58:05;9.40;99.90
12446;DHT22;6287;50.984;7.022;2023-02-01T11:00:41;9.50;99.90
12446;DHT22;6287;50.984;7.022;2023-02-01T11:05:58;9.20;99.90
12446;DHT22;6287;50.984;7.022;2023-02-01T11:08:27;9.10;99.90
12446;DHT22;6287;50.984;7.022;2023-02-01T11:11:01;9.00;99.90
12446;DHT22;6287;50.984;7.022;2023-02-01T11:13:30;8.90;99.90
12446;DHT22;6287;50.984;7.022;2023-02-01T11:15:59;8.80;99.90
12446;DHT22;6287;50.984;7.022;2023-02-01T11:18:32;8.70;99.90
12446;DHT22;6287;50.984;7.022;2023-02-01T11:21:00;8.60;99.90
12446;DHT22;6287;50.984;7.022;2023-02-01T11:23:30;8.40;99.90
12446;DHT22;6287;50.984;7.022;2023-02-01T11:26:01;8.40;99.90
12446;DHT22;6287;50.984;7.022;2023-02-01T11:28:33;8.40;99.90
12446;DHT22;6287;50.984;7.022;2023-02-01T11:31:03;8.40;99.90
12446;DHT22;6287;50.984;7.022;2023-02-01T11:33:38;8.40;99.90
12446;DHT22;6287;50.984;7.022;2023-02-01T11:36:10;8.60;99.90
12446;DHT22;6287;50.984;7.022;2023-02-01T11:38:38;8.70;99.90
12446;DHT22;6287;50.984;7.022;2023-02-01T11:41:27;8.80;99.90
12446;DHT22;6287;50.984;7.022;2023-02-01T11:44:01;8.70;99.90
12446;DHT22;6287;50.984;7.022;2023-02-01T11:46:36;8.60;99.90
12446;DHT22;6287;50.984;7.022;2023-02-01T11:49:26;8.50;99.90
12446;DHT22;6287;50.984;7.022;2023-02-01T11:54:49;8.40;99.90
12446;DHT22;6287;50.984;7.022;2023-02-01T12:00:06;8.30;99.90
12446;DHT22;6287;50.984;7.022;2023-02-01T12:02:53;8.40;99.90
12446;DHT22;6287;50.984;7.022;2023-02-01T12:08:29;8.50;99.90
12446;DHT22;6287;50.984;7.022;2023-02-01T12:22:46;7.90;99.90
12446;DHT22;6287;50.984;7.022;2023-02-01T12:25:27;7.90;99.90
12446;DHT22;6287;50.984;7.022;2023-02-01T12:39:35;8.00;99.90
12446;DHT22;6287;50.984;7.022;2023-02-01T12:45:26;8.00;99.90
12446;DHT22;6287;50.984;7.022;2023-02-01T12:47:59;8.00;99.90
12446;DHT22;6287;50.984;7.022;2023-02-01T12:50:48;8.00;99.90
12446;DHT22;6287;50.984;7.022;2023-02-01T12:55:50;8.00;99.90
12446;DHT22;6287;50.984;7.022;2023-02-01T12:58:48;8.00;99.90
12446;DHT22;6287;50.984;7.022;2023-02-01T13:03:57;7.90;99.90
12446;DHT22;6287;50.984;7.022;2023-02-01T13:06:51;7.90;99.90
12446;DHT22;6287;50.984;7.022;2023-02-01T13:09:42;7.80;99.90
12446;DHT22;6287;50.984;7.022;2023-02-01T13:12:30;7.80;99.90
12446;DHT22;6287;50.984;7.022;2023-02-01T13:15:23;7.80;99.90
12446;DHT22;6287;50.984;7.022;2023-02-01T13:17:51;7.80;99.90
12446;DHT22;6287;50.984;7.022;2023-02-01T13:20:34;7.80;99.90
12446;DHT22;6287;50.984;7.022;2023-02-01T13:23:18;7.80;99.90
12446;DHT22;6287;50.984;7.022;2023-02-01T13:25:53;7.80;99.90
12446;DHT22;6287;50.984;7.022;2023-02-01T13:42:03;7.80;99.90
12446;DHT22;6287;50.984;7.022;2023-02-01T13:44:42;7.90;99.90
12446;DHT22;6287;50.984;7.022;2023-02-01T13:47:25;7.80;99.90
12446;DHT22;6287;50.984;7.022;2023-02-01T13:49:53;7.90;99.90
12446;DHT22;6287;50.984;7.022;2023-02-01T13:55:03;7.80;99.90
12446;DHT22;6287;50.984;7.022;2023-02-01T13:57:35;7.80;99.90
12446;DHT22;6287;50.984;7.022;2023-02-01T14:00:28;7.90;99.90
12446;DHT22;6287;50.984;7.022;2023-02-01T14:23:48;7.80;99.90
12446;DHT22;6287;50.984;7.022;2023-02-01T14:26:27;7.90;99.90
12446;DHT22;6287;50.984;7.022;2023-02-01T14:37:10;7.90;99.90
12446;DHT22;6287;50.984;7.022;2023-02-01T14:50:39;8.00;99.90
12446;DHT22;6287;50.984;7.022;2023-02-01T15:00:52;8.10;99.90
12446;DHT22;6287;50.984;7.022;2023-02-01T15:08:54;8.10;99.90
12446;DHT22;6287;50.984;7.022;2023-02-01T15:11:28;8.10;99.90
12446;DHT22;6287;50.984;7.022;2023-02-01T15:13:54;8.10;99.90
12446;DHT22;6287;50.984;7.022;2023-02-01T15:16:25;8.10;99.90
12446;DHT22;6287;50.984;7.022;2023-02-01T15:19:10;8.00;99.90
12446;DHT22;6287;50.984;7.022;2023-02-01T15:21:48;8.00;99.90
12446;DHT22;6287;50.984;7.022;2023-02-01T15:29:14;8.00;99.90
12446;DHT22;6287;50.984;7.022;2023-02-01T15:31:50;8.00;99.90
12446;DHT22;6287;50.984;7.022;2023-02-01T15:34:17;8.00;99.90
12446;DHT22;6287;50.984;7.022;2023-02-01T15:36:44;8.00;99.90
12446;DHT22;6287;50.984;7.022;2023-02-01T15:39:19;7.90;99.90
12446;DHT22;6287;50.984;7.022;2023-02-01T15:41:50;8.00;99.90
12446;DHT22;6287;50.984;7.022;2023-02-01T15:44:38;8.00;99.90
12446;DHT22;6287;50.984;7.022;2023-02-01T15:47:14;8.00;99.90
12446;DHT22;6287;50.984;7.022;2023-02-01T15:49:45;8.00;99.90
12446;DHT22;6287;50.984;7.022;2023-02-01T15:52:37;8.00;99.90
12446;DHT22;6287;50.984;7.022;2023-02-01T15:55:17;8.00;99.90
12446;DHT22;6287;50.984;7.022;2023-02-01T15:57:46;8.00;99.90
12446;DHT22;6287;50.984;7.022;2023-02-01T16:00:29;8.00;99.90
12446;DHT22;6287;50.984;7.022;2023-02-01T16:03:04;8.00;99.90
12446;DHT22;6287;50.984;7.022;2023-02-01T16:05:34;7.90;99.90
12446;DHT22;6287;50.984;7.022;2023-02-01T16:08:15;8.00;99.90
12446;DHT22;6287;50.984;7.022;2023-02-01T16:10:46;8.00;99.90
12446;DHT22;6287;50.984;7.022;2023-02-01T16:13:14;8.10;99.90
12446;DHT22;6287;50.984;7.022;2023-02-01T16:15:40;8.10;99.90
12446;DHT22;6287;50.984;7.022;2023-02-01T16:18:11;8.10;99.90
12446;DHT22;6287;50.984;7.022;2023-02-01T16:20:39;8.10;99.90
12446;DHT22;6287;50.984;7.022;2023-02-01T16:23:06;8.10;99.90
12446;DHT22;6287;50.984;7.022;2023-02-01T16:25:32;8.10;99.90
12446;DHT22;6287;50.984;7.022;2023-02-01T16:28:00;8.10;99.90
12446;DHT22;6287;50.984;7.022;2023-02-01T16:30:28;8.10;99.90
12446;DHT22;6287;50.984;7.022;2023-02-01T16:32:57;8.00;99.90
12446;DHT22;6287;50.984;7.022;2023-02-01T16:35:26;8.00;99.90
12446;DHT22;6287;50.984;7.022;2023-02-01T16:37:54;8.00;99.90
12446;DHT22;6287;50.984;7.022;2023-02-01T16:40:24;8.00;99.90
12446;DHT22;6287;50.984;7.022;2023-02-01T16:42:51;8.00;99.90
12446;DHT22;6287;50.984;7.022;2023-02-01T16:45:18;8.00;99.90
12446;DHT22;6287;50.984;7.022;2023-02-01T16:47:48;7.90;99.90
12446;DHT22;6287;50.984;7.022;2023-02-01T16:50:22;7.90;99.90
12446;DHT22;6287;50.984;7.022;2023-02-01T16:52:47;7.90;99.90
12446;DHT22;6287;50.984;7.022;2023-02-01T16:55:15;7.90;99.90
12446;DHT22;6287;50.984;7.022;2023-02-01T16:57:44;7.90;99.90
12446;DHT22;6287;50.984;7.022;2023-02-01T17:00:13;7.80;99.90
12446;DHT22;6287;50.984;7.022;2023-02-01T17:02:42;7.80;99.90
12446;DHT22;6287;50.984;7.022;2023-02-01T17:05:12;7.80;99.90
12446;DHT22;6287;50.984;7.022;2023-02-01T17:07:38;7.80;99.90
12446;DHT22;6287;50.984;7.022;2023-02-01T17:10:09;7.70;99.90
12446;DHT22;6287;50.984;7.022;2023-02-01T17:12:40;7.70;99.90
12446;DHT22;6287;50.984;7.022;2023-02-01T17:15:06;7.70;99.90
12446;DHT22;6287;50.984;7.022;2023-02-01T17:17:40;7.70;99.90
12446;DHT22;6287;50.984;7.022;2023-02-01T17:20:19;7.60;99.90
12446;DHT22;6287;50.984;7.022;2023-02-01T17:22:46;7.60;99.90
12446;DHT22;6287;50.984;7.022;2023-02-01T17:25:21;7.60;99.90
12446;DHT22;6287;50.984;7.022;2023-02-01T17:27:48;7.60;99.90
12446;DHT22;6287;50.984;7.022;2023-02-01T17:30:18;7.60;99.90
12446;DHT22;6287;50.984;7.022;2023-02-01T17:32:46;7.60;99.90
12446;DHT22;6287;50.984;7.022;2023-02-01T17:35:20;7.60;99.90
12446;DHT22;6287;50.984;7.022;2023-02-01T17:37:48;7.60;99.90
12446;DHT22;6287;50.984;7.022;2023-02-01T17:40:17;7.60;99.90
12446;DHT22;6287;50.984;7.022;2023-02-01T17:42:43;7.60;99.90
12446;DHT22;6287;50.984;7.022;2023-02-01T17:45:35;7.60;99.90
12446;DHT22;6287;50.984;7.022;2023-02-01T17:48:06;7.60;99.90
12446;DHT22;6287;50.984;7.022;2023-02-01T17:50:34;7.60;99.90
12446;DHT22;6287;50.984;7.022;2023-02-01T17:53:04;7.60;99.90
12446;DHT22;6287;50.984;7.022;2023-02-01T17:55:35;7.60;99.90
12446;DHT22;6287;50.984;7.022;2023-02-01T17:58:01;7.60;99.90
12446;DHT22;6287;50.984;7.022;2023-02-01T18:00:28;7.60;99.90
12446;DHT22;6287;50.984;7.022;2023-02-01T18:02:56;7.50;99.90
12446;DHT22;6287;50.984;7.022;2023-02-01T18:05:41;7.50;99.90
12446;DHT22;6287;50.984;7.022;2023-02-01T18:08:09;7.50;99.90
12446;DHT22;6287;50.984;7.022;2023-02-01T18:10:37;7.50;99.90
12446;DHT22;6287;50.984;7.022;2023-02-01T18:13:03;7.50;99.90
12446;DHT22;6287;50.984;7.022;2023-02-01T18:15:29;7.50;99.90
12446;DHT22;6287;50.984;7.022;2023-02-01T18:17:56;7.50;99.90
12446;DHT22;6287;50.984;7.022;2023-02-01T18:20:26;7.50;99.90
12446;DHT22;6287;50.984;7.022;2023-02-01T18:22:52;7.50;99.90
12446;DHT22;6287;50.984;7.022;2023-02-01T18:27:49;7.50;99.90
12446;DHT22;6287;50.984;7.022;2023-02-01T18:30:17;7.50;99.90
12446;DHT22;6287;50.984;7.022;2023-02-01T18:32:43;7.50;99.90
12446;DHT22;6287;50.984;7.022;2023-02-01T18:35:23;7.50;99.90
12446;DHT22;6287;50.984;7.022;2023-02-01T18:37:50;7.50;99.90
12446;DHT22;6287;50.984;7.022;2023-02-01T18:40:22;7.50;99.90
12446;DHT22;6287;50.984;7.022;2023-02-01T18:42:48;7.50;99.90
12446;DHT22;6287;50.984;7.022;2023-02-01T18:45:36;7.50;99.90
12446;DHT22;6287;50.984;7.022;2023-02-01T18:48:03;7.50;99.90
12446;DHT22;6287;50.984;7.022;2023-02-01T18:50:32;7.50;99.90
12446;DHT22;6287;50.984;7.022;2023-02-01T18:52:59;7.50;99.90
12446;DHT22;6287;50.984;7.022;2023-02-01T18:55:26;7.50;99.90
12446;DHT22;6287;50.984;7.022;2023-02-01T18:57:56;7.50;99.90
12446;DHT22;6287;50.984;7.022;2023-02-01T19:00:21;7.50;99.90
12446;DHT22;6287;50.984;7.022;2023-02-01T19:02:48;7.50;99.90
12446;DHT22;6287;50.984;7.022;2023-02-01T19:05:14;7.60;99.90
12446;DHT22;6287;50.984;7.022;2023-02-01T19:07:41;7.60;99.90
12446;DHT22;6287;50.984;7.022;2023-02-01T19:10:14;7.60;99.90
12446;DHT22;6287;50.984;7.022;2023-02-01T19:12:42;7.60;99.90
12446;DHT22;6287;50.984;7.022;2023-02-01T19:15:12;7.60;99.90
12446;DHT22;6287;50.984;7.022;2023-02-01T19:17:44;7.60;99.90
12446;DHT22;6287;50.984;7.022;2023-02-01T19:20:16;7.70;99.90
12446;DHT22;6287;50.984;7.022;2023-02-01T19:22:42;7.70;99.90
12446;DHT22;6287;50.984;7.022;2023-02-01T19:25:18;7.70;99.90
12446;DHT22;6287;50.984;7.022;2023-02-01T19:27:44;7.70;99.90
12446;DHT22;6287;50.984;7.022;2023-02-01T19:30:11;7.70;99.90
12446;DHT22;6287;50.984;7.022;2023-02-01T19:32:37;7.70;99.90
12446;DHT22;6287;50.984;7.022;2023-02-01T19:35:04;7.70;99.90
12446;DHT22;6287;50.984;7.022;2023-02-01T19:37:35;7.70;99.90
12446;DHT22;6287;50.984;7.022;2023-02-01T19:40:01;7.80;99.90
12446;DHT22;6287;50.984;7.022;2023-02-01T19:42:27;7.80;99.90
12446;DHT22;6287;50.984;7.022;2023-02-01T19:44:53;7.80;99.90
12446;DHT22;6287;50.984;7.022;2023-02-01T19:49:45;7.80;99.90